Time;durP1;ratioP1;P1;durP2;ratioP2;P2;SDS_P1;SDS_P2;PMS_P1;PMS_P2;Temp;Humidity;BMP_temperature;BMP_pressure;BME280_temperature;BME280_humidity;BME280_pressure;Samples;Min_cycle;Max_cycle;Signal;HPM_P1;HPM_P2
2022/12/15 00:41:49;;;;;;;7.35;4.47;;;12.30;83.90;;;;;;21173901;28;20090;-64
2022/12/15 01:22:53;;;;;;;5.10;3.63;;;12.20;83.30;;;;;;21170210;28;20058;-58
2022/12/15 01:32:55;;;;;;;5.05;2.60;;;12.20;83.20;;;;;;21169353;28;20051;-58
2022/12/15 01:42:57;;;;;;;4.70;2.90;;;12.20;83.10;;;;;;21168343;28;20044;-58
2022/12/15 01:52:59;;;;;;;6.20;3.65;;;12.20;82.80;;;;;;21167016;28;20048;-57
2022/12/15 02:03:01;;;;;;;4.32;2.92;;;12.20;82.20;;;;;;21167136;28;20079;-58
2022/12/15 02:13:22;;;;;;;4.85;2.92;;;12.20;82.20;;;;;;21167306;28;20047;-58
2022/12/15 02:23:36;;;;;;;6.03;3.27;;;12.30;82.00;;;;;;21166470;28;20058;-57
2022/12/15 02:33:59;;;;;;;6.32;2.78;;;12.20;82.40;;;;;;21165928;28;20457;-58
2022/12/15 02:44:11;;;;;;;;;;;12.10;82.90;;;;;;21165630;28;20059;-58
2022/12/15 02:54:52;;;;;;;4.70;1.80;;;12.00;83.10;;;;;;21163874;28;20241;-58
2022/12/15 03:04:57;;;;;;;4.32;2.25;;;12.00;82.80;;;;;;21153120;28;20051;-58
2022/12/15 03:15:01;;;;;;;5.20;2.75;;;12.00;83.10;;;;;;21162930;28;20040;-58
2022/12/15 03:25:04;;;;;;;4.60;2.00;;;11.80;83.40;;;;;;21162993;28;20089;-58
2022/12/15 03:35:07;;;;;;;4.93;2.25;;;11.90;83.20;;;;;;21162600;28;20396;-58
2022/12/15 03:45:09;;;;;;;3.65;2.10;;;12.00;82.60;;;;;;21161625;28;20051;-58
2022/12/15 03:55:12;;;;;;;3.22;2.10;;;11.90;82.40;;;;;;21160945;28;20055;-58
2022/12/15 04:05:27;;;;;;;5.75;2.63;;;11.80;82.50;;;;;;21161380;28;20055;-57
2022/12/15 04:15:30;;;;;;;5.03;2.35;;;11.70;82.40;;;;;;21156585;28;20062;-59
2022/12/15 05:37:58;;;;;;;5.20;2.15;;;11.30;82.00;;;;;;21167692;28;20055;-57
2022/12/15 05:48:01;;;;;;;2.80;1.58;;;11.20;82.20;;;;;;21168825;28;20064;-59
2022/12/15 05:58:03;;;;;;;4.93;2.40;;;11.20;81.60;;;;;;21166955;28;20404;-59
2022/12/15 06:08:05;;;;;;;4.05;1.75;;;11.10;82.00;;;;;;21166882;28;20054;-59
2022/12/15 06:18:07;;;;;;;4.78;2.10;;;11.20;81.90;;;;;;21165008;28;20047;-61
2022/12/15 06:28:09;;;;;;;4.20;2.30;;;11.20;82.20;;;;;;21164145;28;20058;-58
2022/12/15 06:38:12;;;;;;;7.95;2.40;;;11.10;82.20;;;;;;21161336;28;20044;-62
2022/12/15 06:48:15;;;;;;;4.38;2.88;;;11.20;82.20;;;;;;21163224;28;20143;-60
2022/12/15 06:58:17;;;;;;;6.60;3.10;;;11.10;82.60;;;;;;21162771;28;20090;-60
2022/12/15 07:08:19;;;;;;;5.68;2.85;;;11.20;82.80;;;;;;21162818;28;20062;-56
2022/12/15 07:18:21;;;;;;;7.43;3.65;;;11.20;82.90;;;;;;21162432;28;20174;-58
2022/12/15 07:28:23;;;;;;;5.72;4.07;;;11.20;83.40;;;;;;21161396;28;20120;-60
2022/12/15 07:38:27;;;;;;;7.28;4.22;;;11.20;83.30;;;;;;21162058;28;20074;-57
2022/12/15 07:48:29;;;;;;;7.90;5.10;;;11.20;83.70;;;;;;21171387;28;20047;-59
2022/12/15 07:58:31;;;;;;;7.65;5.95;;;11.20;83.80;;;;;;21176441;28;20059;-59
2022/12/15 08:08:33;;;;;;;10.18;5.90;;;11.20;83.70;;;;;;21176258;28;20127;-57
2022/12/15 08:18:35;;;;;;;11.15;7.13;;;11.20;84.00;;;;;;21175037;28;20048;-58
2022/12/15 08:28:38;;;;;;;9.90;6.43;;;11.30;84.30;;;;;;21174404;28;20039;-59
2022/12/15 08:38:41;;;;;;;8.50;5.93;;;11.30;84.20;;;;;;21174195;28;20055;-59
2022/12/15 08:48:44;;;;;;;18.70;11.38;;;11.40;84.20;;;;;;21172596;28;20048;-59
2022/12/15 08:58:47;;;;;;;13.13;10.55;;;11.50;83.80;;;;;;21171257;28;20066;-58
2022/12/15 09:08:49;;;;;;;13.05;8.85;;;11.70;83.50;;;;;;21171342;28;20039;-59
2022/12/15 09:18:53;;;;;;;10.30;5.82;;;11.70;83.50;;;;;;21171281;28;20047;-58
2022/12/15 09:28:55;;;;;;;5.73;3.23;;;11.70;83.20;;;;;;21170311;28;20498;-59
2022/12/15 09:38:58;;;;;;;6.30;2.75;;;11.70;83.50;;;;;;21169044;28;20395;-58
2022/12/15 09:49:04;;;;;;;5.93;2.17;;;11.80;82.60;;;;;;21167965;28;20054;-58
2022/12/15 09:59:24;;;;;;;6.00;2.00;;;11.80;81.40;;;;;;21167607;28;20048;-59
2022/12/15 10:09:28;;;;;;;9.07;2.15;;;11.80;80.70;;;;;;21165958;28;20153;-59
2022/12/15 10:20:27;;;;;;;8.45;2.55;;;12.10;80.60;;;;;;21165040;28;20112;-58
2022/12/15 10:30:30;;;;;;;6.60;1.75;;;12.40;80.20;;;;;;20820661;28;20065;-65
2022/12/15 10:40:57;;;;;;;7.97;1.95;;;14.10;77.00;;;;;;20820095;28;20053;-62
2022/12/15 10:51:14;;;;;;;10.02;2.67;;;14.20;72.40;;;;;;20821391;28;20779;-59
2022/12/15 11:01:19;;;;;;;8.27;2.35;;;13.20;76.20;;;;;;21013734;28;20469;-60
2022/12/15 11:21:58;;;;;;;7.60;1.73;;;12.90;74.80;;;;;;21171388;28;20058;-61
2022/12/15 11:32:00;;;;;;;7.28;2.28;;;12.90;75.50;;;;;;21161866;28;20055;-60
2022/12/15 11:42:07;;;;;;;6.13;1.58;;;13.00;75.10;;;;;;21178575;28;20048;-62
2022/12/15 11:52:51;;;;;;;9.52;1.73;;;13.20;73.90;;;;;;21177913;28;20055;-61
2022/12/15 12:03:23;;;;;;;10.32;2.85;;;13.10;73.10;;;;;;21177072;28;20085;-61
2022/12/15 12:13:45;;;;;;;4.00;1.52;;;13.20;73.20;;;;;;21176047;28;20044;-60
2022/12/15 12:24:01;;;;;;;8.32;1.90;;;13.10;72.30;;;;;;21175018;28;20055;-60
2022/12/15 12:34:14;;;;;;;6.30;1.52;;;13.30;72.90;;;;;;21172012;28;20172;-62
2022/12/15 12:44:32;;;;;;;8.93;1.80;;;13.30;72.70;;;;;;21174336;28;20055;-60
2022/12/15 12:54:36;;;;;;;5.45;1.30;;;13.30;70.30;;;;;;21171987;28;20051;-60
2022/12/15 13:04:39;;;;;;;;;;;13.40;71.10;;;;;;21172645;28;20047;-60
2022/12/15 13:14:43;;;;;;;4.38;1.58;;;13.40;71.20;;;;;;21170172;28;20010;-60
2022/12/15 13:24:50;;;;;;;3.53;1.40;;;13.40;69.90;;;;;;21170312;28;20075;-59
2022/12/15 13:34:52;;;;;;;7.15;2.20;;;13.30;70.70;;;;;;21168217;28;20048;-60
2022/12/15 13:45:04;;;;;;;4.40;1.58;;;13.20;71.40;;;;;;21168864;28;20047;-60
2022/12/15 13:55:16;;;;;;;3.97;1.70;;;13.20;71.40;;;;;;21167234;28;20055;-59
2022/12/15 14:05:21;;;;;;;5.10;1.67;;;13.20;71.30;;;;;;21167843;28;20052;-59
2022/12/15 14:15:28;;;;;;;6.27;1.77;;;13.10;71.20;;;;;;21165543;28;20138;-59
2022/12/15 14:25:29;;;;;;;11.40;3.53;;;12.90;71.70;;;;;;21165219;28;20399;-59
2022/12/15 14:35:46;;;;;;;4.32;1.52;;;12.90;71.70;;;;;;21164950;28;20039;-60
2022/12/15 14:45:55;;;;;;;11.85;2.65;;;12.80;71.80;;;;;;21164218;28;20058;-62
2022/12/15 14:56:10;;;;;;;5.68;1.88;;;12.90;71.20;;;;;;21162609;28;20048;-61
2022/12/15 15:06:11;;;;;;;6.07;1.63;;;12.80;71.80;;;;;;21161622;28;20062;-61
2022/12/15 15:16:18;;;;;;;8.82;2.72;;;12.70;72.30;;;;;;21163543;28;20391;-59
2022/12/15 15:26:20;;;;;;;9.57;1.92;;;12.70;71.40;;;;;;21162950;28;20130;-60
2022/12/15 15:36:29;;;;;;;8.57;2.03;;;12.60;71.90;;;;;;21161600;28;20051;-59
2022/12/15 15:46:34;;;;;;;4.22;1.55;;;12.60;71.60;;;;;;21161326;28;20051;-60
2022/12/15 15:56:36;;;;;;;6.93;2.17;;;12.50;72.50;;;;;;21160460;28;20051;-60
2022/12/15 16:06:37;;;;;;;6.65;1.90;;;12.50;72.50;;;;;;21167378;28;20857;-66
2022/12/15 16:16:43;;;;;;;10.95;2.10;;;12.50;72.90;;;;;;21175890;28;20408;-61
2022/12/15 16:26:48;;;;;;;6.85;2.35;;;12.60;72.80;;;;;;21174478;28;20097;-63
2022/12/15 16:36:50;;;;;;;8.13;1.85;;;12.10;73.60;;;;;;21173786;28;20094;-60
2022/12/15 16:46:52;;;;;;;7.30;1.88;;;12.20;73.30;;;;;;21173287;28;20051;-61
2022/12/15 16:56:56;;;;;;;11.25;2.58;;;12.20;73.60;;;;;;21171897;28;20062;-61
2022/12/15 17:06:58;;;;;;;8.93;1.88;;;12.00;74.80;;;;;;21171466;28;20079;-61
2022/12/15 17:17:01;;;;;;;8.30;2.03;;;12.00;75.20;;;;;;21152425;28;20496;-61
2022/12/15 17:27:04;;;;;;;9.57;2.20;;;12.10;75.80;;;;;;21169594;28;20058;-57
2022/12/15 17:37:11;;;;;;;11.88;3.15;;;12.00;76.40;;;;;;21170326;28;20054;-59
2022/12/15 17:47:14;;;;;;;10.85;4.32;;;11.90;76.30;;;;;;21167477;28;20059;-61
2022/12/15 17:57:15;;;;;;;12.30;2.70;;;12.00;75.50;;;;;;21166398;28;20059;-63
2022/12/15 18:07:20;;;;;;;9.88;2.20;;;12.40;76.80;;;;;;21166792;28;20060;-55
2022/12/15 18:17:22;;;;;;;9.25;2.50;;;12.30;74.90;;;;;;21165712;28;20048;-57
2022/12/15 18:27:26;;;;;;;7.63;2.58;;;12.10;75.20;;;;;;21165348;28;20554;-56
2022/12/15 18:37:28;;;;;;;9.30;2.33;;;12.20;75.90;;;;;;21162688;28;20101;-56
2022/12/15 18:47:29;;;;;;;7.22;2.33;;;12.10;76.20;;;;;;21163181;28;20047;-56
2022/12/15 18:57:36;;;;;;;7.25;2.40;;;12.00;76.50;;;;;;21140533;28;20074;-58
2022/12/15 19:07:38;;;;;;;7.32;2.00;;;12.30;76.20;;;;;;21142799;28;20099;-61
2022/12/15 19:28:00;;;;;;;11.20;5.32;;;12.70;71.90;;;;;;21245453;28;20051;-62
2022/12/15 19:38:03;;;;;;;10.20;3.40;;;12.00;75.70;;;;;;21247413;27;20134;-64
2022/12/15 19:48:05;;;;;;;10.45;4.30;;;11.80;76.60;;;;;;21262391;27;20078;-61
2022/12/15 19:58:23;;;;;;;7.18;2.22;;;11.70;76.30;;;;;;21261476;27;20134;-62
2022/12/15 20:08:28;;;;;;;9.13;2.80;;;11.40;75.60;;;;;;21260860;27;20051;-61
2022/12/15 20:18:30;;;;;;;9.83;2.90;;;11.70;76.80;;;;;;21261432;27;20061;-65
2022/12/15 20:28:31;;;;;;;8.10;2.75;;;11.60;77.70;;;;;;21258813;27;20048;-62
2022/12/15 20:38:33;;;;;;;12.15;2.58;;;11.70;77.30;;;;;;21257841;27;20153;-59
2022/12/15 20:48:35;;;;;;;10.07;4.00;;;12.00;77.70;;;;;;21257862;27;20059;-59
2022/12/15 20:58:37;;;;;;;8.85;3.30;;;11.70;76.00;;;;;;21257735;27;20054;-59
2022/12/15 21:08:39;;;;;;;6.90;3.08;;;11.60;76.60;;;;;;21257816;27;20442;-58
2022/12/15 21:18:44;;;;;;;9.85;2.80;;;11.50;76.10;;;;;;21256332;27;20142;-60
2022/12/15 21:28:47;;;;;;;13.57;2.88;;;11.40;76.20;;;;;;21255465;27;20043;-58
2022/12/15 21:38:51;;;;;;;10.07;2.90;;;11.20;76.20;;;;;;21253659;27;20051;-60
2022/12/15 21:59:21;;;;;;;7.00;2.47;;;11.20;76.90;;;;;;21252273;27;20419;-60
2022/12/15 22:09:24;;;;;;;9.98;3.13;;;11.20;77.10;;;;;;21250534;27;20051;-62
2022/12/15 22:19:27;;;;;;;6.53;2.85;;;11.20;77.30;;;;;;21251363;27;20108;-60
2022/12/15 22:29:30;;;;;;;11.75;3.60;;;11.00;78.60;;;;;;21251642;27;20483;-61
2022/12/15 22:39:33;;;;;;;9.82;2.75;;;11.00;79.00;;;;;;21250573;27;20078;-58
2022/12/15 22:49:39;;;;;;;7.55;3.15;;;11.00;79.20;;;;;;21249323;27;20064;-62
2022/12/15 22:59:48;;;;;;;9.65;3.10;;;11.00;78.90;;;;;;21247810;27;20147;-62
2022/12/15 23:11:35;;;;;;;13.07;3.13;;;11.10;78.70;;;;;;21247637;27;20039;-60
2022/12/15 23:20:15;;;;;;;10.60;2.40;;;11.10;78.80;;;;;;21247507;27;20415;-59
2022/12/15 23:30:18;;;;;;;7.18;2.17;;;11.10;78.30;;;;;;21247451;28;20050;-60
2022/12/15 23:40:21;;;;;;;7.97;2.03;;;11.20;77.30;;;;;;21246581;28;20091;-58
2022/12/15 23:50:23;;;;;;;6.88;1.80;;;11.20;75.10;;;;;;21246581;28;20126;-60
